Marquette, Kansas
Current Conditions -  °F | °C
As of 8:53 PM on Monday 20 Oct 2014 (Local Time) from KSLN Reporting Station
Clear Clear  
Wind Chill: 57°   Ceiling: Unl
Heat Index: 57°   Visibility: 10mi
Dew Point: 47°   Wind: 5mph
Humidity: 69%   Direction: 150°SSE
Pressure: 30.07"   Gusts: NA
Location:  38.56°N, 97.83°W
Report Text: KSLN 210153Z 15004KT 10SM CLR 14/08 A3007 RMK AO2 SLP180 T01390083
Loading
Personal Weather Stations






























Interactive Weather Map
Tropical Storm Tracking
New forecast layout! Learn more

10-Day Weather Forecast

Advertisements
Track Severe Weather on mobile